Cathma — PJTL — position and weather

sailwx.info

Track history (hours):
 
Tides and Currents Weather Stations Pressure Air Temp Water Temp Dewpoint Dewpoint Depression Visibility Wind Speed Wind Dir Waves Ship Positions

Cathma

Last reported at 2017-Feb-07 10:30 UTC. Time now 2017-Feb-20 14:04 UTC.
Position N 60°15' E 019°03'.
Warning: this ship's position is 13 days out of date.

Length 112 m; draft 6.3 m.

Type: Cargo ship. MMSI: 306832000.

Date/timePositionNaut miles runAvg speedWind from/ knotsBaromVisibWave heightAir tempDewpointWater temp
2017-Feb-07 10:30N 60°15' E 019°03'1010.6
2017-Feb-07 09:33N 60°06' E 019°14'1111.1
2017-Feb-07 08:33N 59°58' E 019°28'1111.1
2017-Feb-07 07:34N 59°49' E 019°42'294 8.4
2017-Feb-05 20:29N 55°33' E 015°11'8 9.1
2017-Feb-05 19:33N 55°29' E 014°58'9 9.2
2017-Feb-05 18:33N 55°25' E 014°44'10 9.7
2017-Feb-05 17:33N 55°18' E 014°32'1110.6
2017-Feb-05 16:33N 55°10' E 014°20'1110.6
2017-Feb-05 15:33N 55°01' E 014°09'1010.4
2017-Feb-05 14:33N 54°58' E 013°52'3410.5
2017-Feb-05 11:16N 54°45' E 012°56'710.4
2017-Feb-05 10:33N 54°41' E 012°45'1010.4
2017-Feb-05 09:34N 54°36' E 012°30'21 9.5
2017-Feb-05 07:21N 54°24' E 011°60'910.8
2017-Feb-05 06:34N 54°25' E 011°45'1210.8
2017-Feb-05 05:29N 54°30' E 011°27'9 9.9
2017-Feb-05 04:33N 54°34' E 011°13'10 9.5
2017-Feb-05 03:33N 54°35' E 010°57'1111.3
2017-Feb-05 02:33N 54°34' E 010°37'55 6.8
2017-Feb-04 18:33N 54°04' E 009°19'8 7.8
2017-Feb-04 17:33N 53°57' E 009°14'4 4.3
2017-Feb-04 16:34N 53°54' E 009°09'4 4.0
2017-Feb-04 15:33N 53°52' E 009°03'1212.0
2017-Feb-04 14:33N 53°53' E 008°42'1312.7
2017-Feb-04 13:33N 53°59' E 008°23'1212.0
2017-Feb-04 12:33N 53°59' E 008°03'1211.9
2017-Feb-04 11:33N 53°56' E 007°43'12010.4
2017-Feb-04 00:04N 53°13' E 004°35'612.1
2017-Feb-03 23:33N 53°08' E 004°30'1212.0
2017-Feb-03 22:33N 52°57' E 004°20'1312.5
2017-Feb-03 21:32N 52°46' E 004°10'1312.2
2017-Feb-03 20:31N 52°36' E 003°59'1111.3
2017-Feb-03 19:33N 52°25' E 003°53'1212.0
2017-Feb-03 18:33N 52°13' E 003°53'1111.2
2017-Feb-03 17:33N 52°02' E 003°55'1010.3
2017-Feb-03 16:33N 51°57' E 004°10'1010.4
2017-Feb-03 15:34N 51°51' E 004°23'10 9.9
2017-Feb-03 14:32N 51°46' E 004°38'5 2.4
2017-Feb-03 12:21N 51°41' E 004°36'0 0.0
2017-Feb-03 10:11N 51°41' E 004°36'0 0.0
2017-Feb-03 09:32N 51°41' E 004°36'0 0.0
2017-Feb-03 07:25N 51°41' E 004°36'0 0.0
2017-Feb-03 05:30N 51°41' E 004°36'0 0.0
2017-Feb-03 03:26N 51°41' E 004°36'0 0.0
2017-Feb-03 01:14N 51°41' E 004°36'0 0.0
2017-Feb-03 00:22N 51°41' E 004°36'0 0.0
2017-Feb-02 23:03N 51°41' E 004°36'0 0.0
2017-Feb-02 22:33N 51°41' E 004°36'0 0.0
2017-Feb-02 20:17N 51°41' E 004°36'0 0.0
2017-Feb-02 18:04N 51°41' E 004°36'0 0.0
2017-Feb-02 17:31N 51°41' E 004°36'0 0.0
2017-Feb-02 15:30N 51°41' E 004°36'0 0.0
2017-Feb-02 13:26N 51°41' E 004°36'0 0.0
2017-Feb-02 10:28N 51°41' E 004°36'0 0.0
2017-Feb-02 08:25N 51°41' E 004°36'0 0.0
2017-Feb-02 06:12N 51°41' E 004°36'0 0.0
2017-Feb-02 00:19N 51°41' E 004°36'0 0.0
2017-Feb-01 08:20N 51°41' E 004°36'5 6.3
2017-Feb-01 07:33N 51°46' E 004°38'9 8.9
2017-Feb-01 06:33N 51°51' E 004°25'9 8.8
2017-Feb-01 05:33N 51°56' E 004°13'1312.7
2017-Feb-01 04:33N 52°01' E 003°54'9 9.2
2017-Feb-01 03:33N 51°58' E 003°40'1211.9
2017-Feb-01 02:33N 51°52' E 003°23'4 1.3
2017-Jan-31 23:27N 51°48' E 003°21'0 0.0
2017-Jan-31 22:23N 51°48' E 003°21'0 0.0
2017-Jan-31 21:31N 51°48' E 003°21'0 0.0
2017-Jan-31 20:25N 51°48' E 003°21'0 0.0
2017-Jan-31 19:22N 51°48' E 003°21'0 0.0
2017-Jan-31 18:24N 51°48' E 003°21'0 0.0
2017-Jan-31 17:11N 51°48' E 003°21'0 0.0
2017-Jan-31 16:32N 51°48' E 003°21'0 0.0
2017-Jan-31 15:32N 51°48' E 003°21'0 0.0
2017-Jan-31 14:31N 51°48' E 003°21'0 0.0
2017-Jan-31 13:31N 51°48' E 003°21'0 0.0
2017-Jan-31 12:34N 51°48' E 003°21'0 0.0
2017-Jan-31 11:27N 51°48' E 003°21'0 0.0
2017-Jan-31 10:27N 51°48' E 003°21'0 0.0
2017-Jan-31 09:05N 51°48' E 003°21'0 0.1
2017-Jan-31 08:32N 51°48' E 003°21'0 0.0
2017-Jan-31 07:31N 51°48' E 003°21'0 0.0
2017-Jan-31 06:22N 51°48' E 003°21'0 0.0
2017-Jan-31 05:16N 51°48' E 003°21'0 0.0
2017-Jan-30 16:19N 51°48' E 003°21'0 0.0
2017-Jan-30 15:33N 51°48' E 003°21'0 0.0
2017-Jan-30 14:33N 51°48' E 003°21'0 0.0
2017-Jan-30 03:07N 51°48' E 003°21'0 0.0
2017-Jan-30 02:31N 51°48' E 003°21'0 0.0
2017-Jan-30 01:33N 51°48' E 003°21'0 0.0
2017-Jan-30 00:18N 51°48' E 003°21'0 0.0
2017-Jan-29 02:26N 51°48' E 003°21'0 0.0
2017-Jan-28 22:10N 51°48' E 003°21'0 0.0
2017-Jan-28 21:30N 51°48' E 003°21'  
Track history (hours):
 
Tides and Currents Weather Stations Pressure Air Temp Water Temp Dewpoint Dewpoint Depression Visibility Wind Speed Wind Dir Waves Ship Positions

Cathma

Last reported at 2017-Feb-07 10:30 UTC. Time now 2017-Feb-20 14:04 UTC.
Position N 60°15' E 019°03'.
Warning: this ship's position is 13 days out of date.

Length 112 m; draft 6.3 m.

Type: Cargo ship. MMSI: 306832000.

Date/timePositionNaut miles runAvg speedWind from/ knotsBaromVisibWave heightAir tempDewpointWater temp
2017-Feb-07 10:30N 60°15' E 019°03'1010.6
2017-Feb-07 09:33N 60°06' E 019°14'1111.1
2017-Feb-07 08:33N 59°58' E 019°28'1111.1
2017-Feb-07 07:34N 59°49' E 019°42'294 8.4
2017-Feb-05 20:29N 55°33' E 015°11'8 9.1
2017-Feb-05 19:33N 55°29' E 014°58'9 9.2
2017-Feb-05 18:33N 55°25' E 014°44'10 9.7
2017-Feb-05 17:33N 55°18' E 014°32'1110.6
2017-Feb-05 16:33N 55°10' E 014°20'1110.6
2017-Feb-05 15:33N 55°01' E 014°09'1010.4
2017-Feb-05 14:33N 54°58' E 013°52'3410.5
2017-Feb-05 11:16N 54°45' E 012°56'710.4
2017-Feb-05 10:33N 54°41' E 012°45'1010.4
2017-Feb-05 09:34N 54°36' E 012°30'21 9.5
2017-Feb-05 07:21N 54°24' E 011°60'910.8
2017-Feb-05 06:34N 54°25' E 011°45'1210.8
2017-Feb-05 05:29N 54°30' E 011°27'9 9.9
2017-Feb-05 04:33N 54°34' E 011°13'10 9.5
2017-Feb-05 03:33N 54°35' E 010°57'1111.3
2017-Feb-05 02:33N 54°34' E 010°37'55 6.8
2017-Feb-04 18:33N 54°04' E 009°19'8 7.8
2017-Feb-04 17:33N 53°57' E 009°14'4 4.3
2017-Feb-04 16:34N 53°54' E 009°09'4 4.0
2017-Feb-04 15:33N 53°52' E 009°03'1212.0
2017-Feb-04 14:33N 53°53' E 008°42'1312.7
2017-Feb-04 13:33N 53°59' E 008°23'1212.0
2017-Feb-04 12:33N 53°59' E 008°03'1211.9
2017-Feb-04 11:33N 53°56' E 007°43'12010.4
2017-Feb-04 00:04N 53°13' E 004°35'612.1
2017-Feb-03 23:33N 53°08' E 004°30'1212.0
2017-Feb-03 22:33N 52°57' E 004°20'1312.5
2017-Feb-03 21:32N 52°46' E 004°10'1312.2
2017-Feb-03 20:31N 52°36' E 003°59'1111.3
2017-Feb-03 19:33N 52°25' E 003°53'1212.0
2017-Feb-03 18:33N 52°13' E 003°53'1111.2
2017-Feb-03 17:33N 52°02' E 003°55'1010.3
2017-Feb-03 16:33N 51°57' E 004°10'1010.4
2017-Feb-03 15:34N 51°51' E 004°23'10 9.9
2017-Feb-03 14:32N 51°46' E 004°38'5 2.4
2017-Feb-03 12:21N 51°41' E 004°36'0 0.0
2017-Feb-03 10:11N 51°41' E 004°36'0 0.0
2017-Feb-03 09:32N 51°41' E 004°36'0 0.0
2017-Feb-03 07:25N 51°41' E 004°36'0 0.0
2017-Feb-03 05:30N 51°41' E 004°36'0 0.0
2017-Feb-03 03:26N 51°41' E 004°36'0 0.0
2017-Feb-03 01:14N 51°41' E 004°36'0 0.0
2017-Feb-03 00:22N 51°41' E 004°36'0 0.0
2017-Feb-02 23:03N 51°41' E 004°36'0 0.0
2017-Feb-02 22:33N 51°41' E 004°36'0 0.0
2017-Feb-02 20:17N 51°41' E 004°36'0 0.0
2017-Feb-02 18:04N 51°41' E 004°36'0 0.0
2017-Feb-02 17:31N 51°41' E 004°36'0 0.0
2017-Feb-02 15:30N 51°41' E 004°36'0 0.0
2017-Feb-02 13:26N 51°41' E 004°36'0 0.0
2017-Feb-02 10:28N 51°41' E 004°36'0 0.0
2017-Feb-02 08:25N 51°41' E 004°36'0 0.0
2017-Feb-02 06:12N 51°41' E 004°36'0 0.0
2017-Feb-02 00:19N 51°41' E 004°36'0 0.0
2017-Feb-01 08:20N 51°41' E 004°36'5 6.3
2017-Feb-01 07:33N 51°46' E 004°38'9 8.9
2017-Feb-01 06:33N 51°51' E 004°25'9 8.8
2017-Feb-01 05:33N 51°56' E 004°13'1312.7
2017-Feb-01 04:33N 52°01' E 003°54'9 9.2
2017-Feb-01 03:33N 51°58' E 003°40'1211.9
2017-Feb-01 02:33N 51°52' E 003°23'4 1.3
2017-Jan-31 23:27N 51°48' E 003°21'0 0.0
2017-Jan-31 22:23N 51°48' E 003°21'0 0.0
2017-Jan-31 21:31N 51°48' E 003°21'0 0.0
2017-Jan-31 20:25N 51°48' E 003°21'0 0.0
2017-Jan-31 19:22N 51°48' E 003°21'0 0.0
2017-Jan-31 18:24N 51°48' E 003°21'0 0.0
2017-Jan-31 17:11N 51°48' E 003°21'0 0.0
2017-Jan-31 16:32N 51°48' E 003°21'0 0.0
2017-Jan-31 15:32N 51°48' E 003°21'0 0.0
2017-Jan-31 14:31N 51°48' E 003°21'0 0.0
2017-Jan-31 13:31N 51°48' E 003°21'0 0.0
2017-Jan-31 12:34N 51°48' E 003°21'0 0.0
2017-Jan-31 11:27N 51°48' E 003°21'0 0.0
2017-Jan-31 10:27N 51°48' E 003°21'0 0.0
2017-Jan-31 09:05N 51°48' E 003°21'0 0.1
2017-Jan-31 08:32N 51°48' E 003°21'0 0.0
2017-Jan-31 07:31N 51°48' E 003°21'0 0.0
2017-Jan-31 06:22N 51°48' E 003°21'0 0.0
2017-Jan-31 05:16N 51°48' E 003°21'0 0.0
2017-Jan-30 16:19N 51°48' E 003°21'0 0.0
2017-Jan-30 15:33N 51°48' E 003°21'0 0.0
2017-Jan-30 14:33N 51°48' E 003°21'0 0.0
2017-Jan-30 03:07N 51°48' E 003°21'0 0.0
2017-Jan-30 02:31N 51°48' E 003°21'0 0.0
2017-Jan-30 01:33N 51°48' E 003°21'0 0.0
2017-Jan-30 00:18N 51°48' E 003°21'0 0.0
2017-Jan-29 02:26N 51°48' E 003°21'0 0.0
2017-Jan-28 22:10N 51°48' E 003°21'0 0.0
2017-Jan-28 21:30N 51°48' E 003°21'  

Dump ship's entire track history